Time;durP1;ratioP1;P1;durP2;ratioP2;P2;SDS_P1;SDS_P2;PMS_P1;PMS_P2;Temp;Humidity;BMP_temperature;BMP_pressure;BME280_temperature;BME280_humidity;BME280_pressure;Samples;Min_cycle;Max_cycle;Signal;HPM_P1;HPM_P2
2022/06/19 00:00:16;;;;;;;;;;;;;;;23.03;44.97;96441.28;30001;983;1877;-60
2022/06/19 00:00:48;;;;;;;;;;;;;;;23.07;44.99;96441.31;30001;986;1777;-59
2022/06/19 00:01:22;;;;;;;;;;;;;;;23.05;44.54;96433.41;30001;983;1877;-59
2022/06/19 00:01:55;;;;;;;;;;;;;;;23.08;45.25;96440.16;30001;983;1878;-59
2022/06/19 00:02:27;;;;;;;;;;;;;;;23.07;44.66;96435.78;30001;983;1877;-60
2022/06/19 00:02:58;;;;;;;;;;;;;;;23.09;44.22;96429.88;30001;982;1864;-58
2022/06/19 00:03:33;;;;;;;;;;;;;;;23.11;44.91;96439.38;30001;982;1856;-60
2022/06/19 00:04:05;;;;;;;;;;;;;;;23.09;44.33;96438.97;30001;982;1878;-61
2022/06/19 00:04:36;;;;;;;;;;;;;;;23.08;44.58;96434.63;30001;982;1878;-61
2022/06/19 00:05:07;;;;;;;;;;;;;;;23.05;45.68;96438.94;30001;983;1877;-59
2022/06/19 00:05:38;;;;;;;;;;;;;;;23.05;44.61;96432.63;30001;983;1877;-60
2022/06/19 00:06:08;;;;;;;;;;;;;;;23.08;44.59;96431.84;30001;983;1877;-60
2022/06/19 00:06:39;;;;;;;;;;;;;;;23.11;44.14;96428.31;30001;983;1877;-54
2022/06/19 00:07:11;;;;;;;;;;;;;;;23.13;44.44;96423.19;30001;983;1877;-60
2022/06/19 00:07:43;;;;;;;;;;;;;;;23.15;44.10;96431.91;30001;983;1877;-59
2022/06/19 00:08:16;;;;;;;;;;;;;;;23.16;44.32;96427.94;30001;983;1864;-61
2022/06/19 00:08:48;;;;;;;;;;;;;;;23.18;43.95;96422.03;30001;983;1869;-59
2022/06/19 00:09:20;;;;;;;;;;;;;;;23.16;44.05;96419.66;30001;983;1877;-59
2022/06/19 00:09:52;;;;;;;;;;;;;;;23.17;43.74;96423.22;30001;983;1878;-59
2022/06/19 00:10:23;;;;;;;;;;;;;;;23.16;43.97;96425.19;30001;982;1878;-60
2022/06/19 00:10:54;;;;;;;;;;;;;;;23.18;43.89;96417.28;30001;982;1878;-60
2022/06/19 00:11:25;;;;;;;;;;;;;;;23.20;43.78;96416.91;30001;982;1877;-60
2022/06/19 00:11:56;;;;;;;;;;;;;;;23.19;43.54;96416.13;30001;982;1878;-60
2022/06/19 00:12:32;;;;;;;;;;;;;;;23.19;43.93;96416.13;30001;982;1878;-59
2022/06/19 00:13:05;;;;;;;;;;;;;;;23.19;43.89;96413.34;30001;983;1864;-59
2022/06/19 00:13:38;;;;;;;;;;;;;;;23.20;43.77;96414.94;30001;983;1868;-60
2022/06/19 00:14:10;;;;;;;;;;;;;;;23.20;44.04;96409.41;30001;983;1877;-59
2022/06/19 00:14:41;;;;;;;;;;;;;;;23.21;43.62;96413.75;30001;983;1877;-60
2022/06/19 00:15:12;;;;;;;;;;;;;;;23.21;43.84;96413.75;30001;983;1877;-60
2022/06/19 00:15:43;;;;;;;;;;;;;;;23.19;44.13;96415.31;30001;983;1877;-60
2022/06/19 00:16:15;;;;;;;;;;;;;;;23.19;43.71;96421.66;30001;983;1877;-60
2022/06/19 00:16:46;;;;;;;;;;;;;;;23.19;43.76;96407.81;30001;982;1864;-61
2022/06/19 00:17:16;;;;;;;;;;;;;;;23.21;43.43;96413.75;30001;982;1869;-59
2022/06/19 00:17:47;;;;;;;;;;;;;;;23.24;43.67;96412.94;30001;982;1877;-60
2022/06/19 00:18:18;;;;;;;;;;;;;;;23.30;43.20;96405.88;30001;982;1878;-60
2022/06/19 00:18:49;;;;;;;;;;;;;;;23.31;43.30;96407.47;30001;982;1864;-59
2022/06/19 00:19:20;;;;;;;;;;;;;;;23.30;43.52;96408.66;30001;982;1856;-60
2022/06/19 00:19:52;;;;;;;;;;;;;;;23.28;43.43;96402.69;30001;982;1878;-60
2022/06/19 00:20:23;;;;;;;;;;;;;;;23.25;43.55;96405.44;30001;970;1900;-60
2022/06/19 00:20:54;;;;;;;;;;;;;;;23.20;44.06;96411.37;30001;983;1877;-59
2022/06/19 00:21:25;;;;;;;;;;;;;;;23.19;43.76;96410.56;30001;983;1877;-60
2022/06/19 00:21:56;;;;;;;;;;;;;;;23.20;43.78;96403.87;30001;983;1877;-59
2022/06/19 00:22:27;;;;;;;;;;;;;;;23.23;43.39;96402.25;30001;983;1877;-60
2022/06/19 00:22:58;;;;;;;;;;;;;;;23.25;43.52;96405.44;30001;983;1877;-60
2022/06/19 00:23:29;;;;;;;;;;;;;;;23.28;43.18;96408.22;30001;983;1877;-61
2022/06/19 00:23:59;;;;;;;;;;;;;;;23.32;43.02;96403.50;30001;983;1864;-60
2022/06/19 00:24:31;;;;;;;;;;;;;;;23.36;42.96;96390.50;30001;974;1887;-59
2022/06/19 00:25:02;;;;;;;;;;;;;;;23.37;43.27;96394.84;30001;982;1877;-60
2022/06/19 00:25:34;;;;;;;;;;;;;;;23.36;43.15;96393.25;30001;982;1877;-60
2022/06/19 00:26:05;;;;;;;;;;;;;;;23.33;43.56;96394.03;30001;982;1877;-60
2022/06/19 00:26:36;;;;;;;;;;;;;;;23.31;43.49;96390.06;30001;982;1878;-60
2022/06/19 00:27:07;;;;;;;;;;;;;;;23.28;43.59;96397.16;30001;976;1896;-60
2022/06/19 00:27:39;;;;;;;;;;;;;;;23.24;43.53;96401.88;30001;982;1878;-59
2022/06/19 00:28:09;;;;;;;;;;;;;;;23.25;43.27;96386.06;30001;983;1864;-59
2022/06/19 00:28:40;;;;;;;;;;;;;;;23.26;43.23;96398.72;30001;985;1869;-60
2022/06/19 00:29:12;;;;;;;;;;;;;;;23.30;43.37;96388.47;30001;983;1877;-59
2022/06/19 00:29:43;;;;;;;;;;;;;;;23.31;43.18;96390.06;30001;983;1877;-60
2022/06/19 00:30:14;;;;;;;;;;;;;;;23.31;43.56;96390.84;30001;983;1878;-60
2022/06/19 00:30:45;;;;;;;;;;;;;;;23.30;43.48;96389.25;30001;983;1877;-60
2022/06/19 00:31:16;;;;;;;;;;;;;;;23.28;43.53;96396.37;30001;987;1877;-59
2022/06/19 00:31:47;;;;;;;;;;;;;;;23.24;43.47;96390.81;30001;983;1877;-61
2022/06/19 00:32:21;;;;;;;;;;;;;;;23.19;44.88;96399.50;30001;982;1864;-59
2022/06/19 00:32:52;;;;;;;;;;;;;;;23.16;44.23;96391.97;30001;982;1869;-60
2022/06/19 00:33:23;;;;;;;;;;;;;;;23.16;44.12;96393.94;30001;982;1878;-60
2022/06/19 00:33:54;;;;;;;;;;;;;;;23.19;43.51;96393.19;30001;982;1878;-60
2022/06/19 00:34:25;;;;;;;;;;;;;;;23.23;43.63;96388.44;30001;982;1878;-60
2022/06/19 00:34:56;;;;;;;;;;;;;;;23.22;43.62;96393.16;30001;982;1878;-59
2022/06/19 00:35:27;;;;;;;;;;;;;;;23.20;44.19;96395.56;30001;983;1877;-60
2022/06/19 00:35:58;;;;;;;;;;;;;;;23.14;43.94;96391.56;30001;983;1877;-60
2022/06/19 00:36:29;;;;;;;;;;;;;;;23.13;43.89;96386.41;30001;983;1877;-59
2022/06/19 00:37:04;;;;;;;;;;;;;;;23.12;43.99;96388.37;30001;983;1877;-60
2022/06/19 00:37:35;;;;;;;;;;;;;;;23.08;44.17;96384.81;30001;983;1864;-54
2022/06/19 00:38:06;;;;;;;;;;;;;;;23.05;44.91;96391.91;30001;983;1869;-60
2022/06/19 00:38:36;;;;;;;;;;;;;;;23.01;44.77;96391.09;30001;983;1877;-60
2022/06/19 00:39:07;;;;;;;;;;;;;;;22.98;44.51;96394.63;30001;983;1877;-60
2022/06/19 00:39:42;;;;;;;;;;;;;;;22.96;46.23;96396.19;30001;982;1877;-60
2022/06/19 00:40:14;;;;;;;;;;;;;;;22.89;45.49;96391.38;30001;982;1878;-60
2022/06/19 00:40:44;;;;;;;;;;;;;;;22.86;45.39;96391.38;30001;982;1878;-60
2022/06/19 00:41:18;;;;;;;;;;;;;;;22.83;45.53;96392.16;30001;985;1878;-61
2022/06/19 00:41:49;;;;;;;;;;;;;;;22.80;45.96;96387.38;30001;982;1878;-60
2022/06/19 00:42:24;;;;;;;;;;;;;;;22.77;47.28;96393.66;30001;982;1878;-60
2022/06/19 00:43:00;;;;;;;;;;;;;;;22.72;46.13;96389.28;30001;983;1864;-60
2022/06/19 00:43:51;;;;;;;;;;;;;;;22.68;46.09;96397.53;30001;983;1868;-59
2022/06/19 00:44:22;;;;;;;;;;;;;;;22.65;46.55;96389.22;30001;983;1877;-60
2022/06/19 00:44:52;;;;;;;;;;;;;;;22.61;47.75;96403.00;30001;983;1877;-59
2022/06/19 00:45:31;;;;;;;;;;;;;;;22.60;46.91;96400.62;30001;983;1877;-59
2022/06/19 00:46:22;;;;;;;;;;;;;;;22.56;47.22;96392.28;30001;983;1877;-60
2022/06/19 00:46:55;;;;;;;;;;;;;;;22.51;47.75;96398.19;30001;983;1873;-60
2022/06/19 00:47:28;;;;;;;;;;;;;;;22.48;47.80;96398.97;30001;982;1864;-60
2022/06/19 00:48:08;;;;;;;;;;;;;;;22.45;49.23;96405.25;30001;982;1869;-59
2022/06/19 00:48:40;;;;;;;;;;;;;;;22.38;48.32;96405.97;30001;982;1865;-60
2022/06/19 00:49:12;;;;;;;;;;;;;;;22.37;48.24;96406.34;30001;982;1869;-58
2022/06/19 00:49:57;;;;;;;;;;;;;;;22.34;48.19;96398.81;30001;983;1877;-60
2022/06/19 00:50:30;;;;;;;;;;;;;;;22.30;49.04;96398.78;30001;983;1877;-60
2022/06/19 00:51:02;;;;;;;;;;;;;;;22.29;48.51;96399.16;30001;983;1877;-60
2022/06/19 00:51:33;;;;;;;;;;;;;;;22.27;48.54;96399.56;30001;983;1877;-60
2022/06/19 00:52:07;;;;;;;;;;;;;;;22.26;48.35;96397.16;30001;983;1877;-59
2022/06/19 00:52:39;;;;;;;;;;;;;;;22.23;48.54;96392.41;30001;983;1877;-59
2022/06/19 00:53:16;;;;;;;;;;;;;;;22.21;48.31;96395.53;30001;980;1876;-60
2022/06/19 00:53:47;;;;;;;;;;;;;;;22.19;48.74;96391.56;30001;983;1855;-60
2022/06/19 00:54:20;;;;;;;;;;;;;;;22.17;48.31;96389.22;30001;983;1878;-61
2022/06/19 00:54:54;;;;;;;;;;;;;;;22.15;48.59;96385.25;30001;982;1864;-60
2022/06/19 00:55:36;;;;;;;;;;;;;;;22.13;48.62;96393.91;30001;982;1869;-59
2022/06/19 00:56:10;;;;;;;;;;;;;;;22.09;49.27;96392.28;30001;982;1877;-58
2022/06/19 00:56:42;;;;;;;;;;;;;;;22.04;49.01;96388.69;30001;982;1878;-62
2022/06/19 00:57:14;;;;;;;;;;;;;;;22.01;48.95;96385.88;30001;983;1877;-61
2022/06/19 00:57:47;;;;;;;;;;;;;;;21.99;49.19;96389.00;30001;983;1877;-60
2022/06/19 00:58:21;;;;;;;;;;;;;;;21.97;49.05;96379.50;30001;983;1877;-58
2022/06/19 00:58:52;;;;;;;;;;;;;;;21.95;49.53;96385.38;30001;983;1877;-60
2022/06/19 00:59:24;;;;;;;;;;;;;;;21.94;49.82;96380.25;30001;983;1877;-61
2022/06/19 01:00:09;;;;;;;;;;;;;;;21.91;49.59;96381.78;30001;983;1864;-56
2022/06/19 01:00:40;;;;;;;;;;;;;;;21.88;49.86;96381.75;30001;983;1869;-62
2022/06/19 01:01:13;;;;;;;;;;;;;;;21.86;49.91;96373.84;30001;983;1877;-62
2022/06/19 01:01:45;;;;;;;;;;;;;;;21.85;49.48;96377.78;30001;983;1877;-63
2022/06/19 01:02:16;;;;;;;;;;;;;;;21.83;49.31;96376.59;30001;982;1878;-63
2022/06/19 01:02:47;;;;;;;;;;;;;;;21.81;49.84;96388.03;30001;982;1877;-59
2022/06/19 01:03:20;;;;;;;;;;;;;;;21.80;49.80;96377.34;30001;977;1883;-65
2022/06/19 01:03:53;;;;;;;;;;;;;;;21.78;49.58;96374.97;30001;986;1865;-67
2022/06/19 01:04:46;;;;;;;;;;;;;;;21.76;49.73;96374.53;30001;982;1869;-62
2022/06/19 01:05:17;;;;;;;;;;;;;;;21.75;49.89;96384.00;30001;983;1864;-64
2022/06/19 01:05:52;;;;;;;;;;;;;;;21.73;49.88;96381.63;30001;983;1868;-63
2022/06/19 01:06:26;;;;;;;;;;;;;;;21.72;49.97;96380.03;30001;971;1884;-56
2022/06/19 01:06:57;;;;;;;;;;;;;;;21.70;49.65;96376.06;30001;983;1868;-65
2022/06/19 01:07:29;;;;;;;;;;;;;;;21.69;49.93;96374.47;30001;983;1877;-66
2022/06/19 01:08:00;;;;;;;;;;;;;;;21.68;49.78;96375.63;30001;983;1877;-68
2022/06/19 01:08:31;;;;;;;;;;;;;;;21.66;49.65;96369.69;30001;983;1877;-65
2022/06/19 01:09:03;;;;;;;;;;;;;;;21.65;49.62;96379.13;30001;983;1877;-65
2022/06/19 01:09:37;;;;;;;;;;;;;;;21.63;49.77;96375.97;30001;983;1877;-63
2022/06/19 01:10:12;;;;;;;;;;;;;;;21.63;49.99;96375.97;30001;982;1878;-55
2022/06/19 01:10:46;;;;;;;;;;;;;;;21.61;50.19;96379.09;30001;982;1878;-63
2022/06/19 01:11:18;;;;;;;;;;;;;;;21.58;50.13;96376.28;30001;982;1878;-63
2022/06/19 01:11:49;;;;;;;;;;;;;;;21.55;51.28;96377.03;30001;982;1865;-55
2022/06/19 01:12:21;;;;;;;;;;;;;;;21.52;50.26;96380.56;30001;983;1868;-66
2022/06/19 01:12:52;;;;;;;;;;;;;;;21.50;50.44;96383.69;30001;983;1877;-63
2022/06/19 01:13:25;;;;;;;;;;;;;;;21.49;50.68;96384.06;30001;983;1877;-66
2022/06/19 01:13:57;;;;;;;;;;;;;;;21.47;51.26;96384.47;30001;983;1877;-64
2022/06/19 01:14:28;;;;;;;;;;;;;;;21.45;51.20;96380.50;30001;983;1877;-63
2022/06/19 01:15:05;;;;;;;;;;;;;;;21.44;51.08;96385.22;30001;983;1877;-66
2022/06/19 01:15:37;;;;;;;;;;;;;;;21.43;51.22;96383.63;30001;983;1877;-55
2022/06/19 01:16:11;;;;;;;;;;;;;;;21.43;51.03;96388.34;30001;983;1877;-66
2022/06/19 01:16:41;;;;;;;;;;;;;;;21.40;51.54;96387.13;30001;983;1877;-65
2022/06/19 01:17:13;;;;;;;;;;;;;;;21.37;50.87;96380.41;30001;982;1864;-64
2022/06/19 01:17:46;;;;;;;;;;;;;;;21.38;50.86;96378.44;30001;982;1869;-66
2022/06/19 01:18:18;;;;;;;;;;;;;;;21.36;50.82;96383.53;30001;982;1877;-65
2022/06/19 01:18:49;;;;;;;;;;;;;;;21.35;50.84;96379.97;30001;982;1878;-65
2022/06/19 01:19:25;;;;;;;;;;;;;;;21.34;51.04;96386.66;30001;982;1878;-66
2022/06/19 01:19:56;;;;;;;;;;;;;;;21.31;51.43;96379.13;30001;983;1877;-65
2022/06/19 01:20:27;;;;;;;;;;;;;;;21.32;50.96;96383.47;30001;983;1877;-64
2022/06/19 01:21:08;;;;;;;;;;;;;;;21.31;50.74;96379.13;30001;983;1877;-67
2022/06/19 01:21:42;;;;;;;;;;;;;;;21.30;50.69;96377.53;30001;983;1877;-68
2022/06/19 01:22:33;;;;;;;;;;;;;;;21.29;50.53;96373.19;30001;983;1864;-67
2022/06/19 01:23:11;;;;;;;;;;;;;;;21.28;50.80;96374.34;30001;983;1864;-67
2022/06/19 01:23:55;;;;;;;;;;;;;;;21.27;51.20;96372.75;30001;983;1877;-67
2022/06/19 01:24:40;;;;;;;;;;;;;;;21.26;50.51;96373.13;30001;982;1877;-68
2022/06/19 01:25:16;;;;;;;;;;;;;;;21.24;51.14;96370.75;30001;982;1878;-69
2022/06/19 01:25:49;;;;;;;;;;;;;;;21.23;50.68;96358.13;30001;982;1878;-68
2022/06/19 01:26:22;;;;;;;;;;;;;;;21.23;50.54;96358.13;30001;982;1865;-67
2022/06/19 01:26:55;;;;;;;;;;;;;;;21.25;50.28;96355.78;30001;982;1869;-67
2022/06/19 01:29:26;;;;;;;;;;;;;;;21.27;49.98;96358.97;30001;983;1877;-68
2022/06/19 01:29:57;;;;;;;;;;;;;;;21.32;49.03;96361.41;30001;983;1878;-67
2022/06/19 01:30:29;;;;;;;;;;;;;;;21.38;48.13;96348.88;30001;983;1877;-67
2022/06/19 01:31:01;;;;;;;;;;;;;;;21.46;48.38;96349.75;30001;970;1884;-68
2022/06/19 01:31:36;;;;;;;;;;;;;;;21.56;47.58;96342.75;30001;982;1869;-69
2022/06/19 01:32:08;;;;;;;;;;;;;;;21.62;47.59;96341.25;30001;982;1877;-66
2022/06/19 01:32:42;;;;;;;;;;;;;;;21.69;47.17;96344.09;30001;982;1864;-66
2022/06/19 01:33:19;;;;;;;;;;;;;;;21.77;47.05;96343.00;30001;982;1869;-69
2022/06/19 01:34:02;;;;;;;;;;;;;;;21.81;46.90;96341.06;30001;982;1878;-68
2022/06/19 01:34:36;;;;;;;;;;;;;;;21.87;46.97;96336.78;30001;982;1865;-67
2022/06/19 01:35:09;;;;;;;;;;;;;;;21.89;46.92;96337.19;30001;983;1868;-68
2022/06/19 01:35:41;;;;;;;;;;;;;;;21.91;46.65;96332.06;30001;983;1877;-69
2022/06/19 01:36:13;;;;;;;;;;;;;;;21.96;46.22;96334.50;30001;983;1864;-68
2022/06/19 01:36:44;;;;;;;;;;;;;;;22.00;46.18;96334.53;30001;983;1855;-69
2022/06/19 01:37:17;;;;;;;;;;;;;;;22.04;46.13;96329.88;30001;983;1776;-68
2022/06/19 01:37:49;;;;;;;;;;;;;;;22.08;46.25;96329.91;30001;983;1877;-69
2022/06/19 01:38:21;;;;;;;;;;;;;;;22.13;45.59;96322.06;30001;983;1877;-69
2022/06/19 01:38:53;;;;;;;;;;;;;;;22.18;45.79;96326.44;30001;983;1877;-67
2022/06/19 01:39:24;;;;;;;;;;;;;;;22.23;45.58;96312.25;30001;982;1878;-71
2022/06/19 01:39:57;;;;;;;;;;;;;;;22.29;45.67;96321.78;30001;982;1878;-68
2022/06/19 01:40:31;;;;;;;;;;;;;;;22.34;44.93;96321.44;30001;982;1878;-69
2022/06/19 01:41:06;;;;;;;;;;;;;;;22.37;45.13;96315.16;30001;982;1878;-68
2022/06/19 01:41:40;;;;;;;;;;;;;;;22.38;45.48;96316.72;30001;983;1864;-67
2022/06/19 01:42:11;;;;;;;;;;;;;;;22.41;45.40;96315.97;30001;983;1868;-67
2022/06/19 01:42:42;;;;;;;;;;;;;;;22.39;45.24;96319.13;30001;983;1877;-66
2022/06/19 01:43:13;;;;;;;;;;;;;;;22.37;45.57;96312.37;30001;983;1877;-68
2022/06/19 01:43:44;;;;;;;;;;;;;;;22.39;45.07;96318.31;30001;983;1877;-68
2022/06/19 01:44:15;;;;;;;;;;;;;;;22.42;44.78;96316.75;30001;983;1877;-69
2022/06/19 01:44:47;;;;;;;;;;;;;;;22.42;44.67;96317.56;30001;983;1877;-68
2022/06/19 01:45:19;;;;;;;;;;;;;;;22.43;44.70;96319.16;30001;983;1864;-71
2022/06/19 01:45:54;;;;;;;;;;;;;;;22.47;44.67;96314.44;30001;983;1868;-67
2022/06/19 01:46:27;;;;;;;;;;;;;;;22.52;44.27;96314.09;30001;983;1877;-68
2022/06/19 01:46:59;;;;;;;;;;;;;;;22.55;44.43;96312.50;30001;982;1864;-66
2022/06/19 01:47:30;;;;;;;;;;;;;;;22.54;44.95;96311.69;30001;982;1869;-68
2022/06/19 01:48:01;;;;;;;;;;;;;;;22.55;44.17;96313.28;30001;982;1878;-67
2022/06/19 01:48:33;;;;;;;;;;;;;;;22.56;44.21;96306.59;30001;982;1878;-69
2022/06/19 01:49:04;;;;;;;;;;;;;;;22.56;44.31;96317.66;30001;983;1877;-68
2022/06/19 01:49:35;;;;;;;;;;;;;;;22.59;43.98;96311.34;30001;983;1877;-67
2022/06/19 01:50:08;;;;;;;;;;;;;;;22.64;44.11;96310.19;30001;983;1877;-70
2022/06/19 01:50:40;;;;;;;;;;;;;;;22.62;44.12;96309.78;30001;983;1877;-68
2022/06/19 01:51:11;;;;;;;;;;;;;;;22.60;44.17;96307.41;30001;983;1877;-68
2022/06/19 01:51:42;;;;;;;;;;;;;;;22.65;44.34;96309.81;30001;983;1877;-69
2022/06/19 01:52:13;;;;;;;;;;;;;;;22.67;44.01;96301.94;30001;983;1864;-66
2022/06/19 01:52:45;;;;;;;;;;;;;;;22.71;43.52;96299.19;30001;983;1860;-67
2022/06/19 01:53:24;;;;;;;;;;;;;;;22.69;43.93;96299.56;30001;983;1882;-68
2022/06/19 01:53:58;;;;;;;;;;;;;;;22.72;43.82;96295.25;30001;983;1882;-70
2022/06/19 01:54:32;;;;;;;;;;;;;;;22.77;43.88;96299.63;30001;982;1882;-69
2022/06/19 01:55:06;;;;;;;;;;;;;;;22.77;43.74;96297.66;30001;982;1882;-68
2022/06/19 01:55:37;;;;;;;;;;;;;;;22.80;43.53;96298.88;30001;982;1882;-68
2022/06/19 01:56:09;;;;;;;;;;;;;;;22.77;43.20;96302.38;30001;982;1869;-68
2022/06/19 01:56:40;;;;;;;;;;;;;;;22.76;43.61;96293.28;30001;983;1872;-67
2022/06/19 01:57:12;;;;;;;;;;;;;;;22.74;43.52;96296.44;30001;983;1881;-68
2022/06/19 01:57:47;;;;;;;;;;;;;;;22.72;43.27;96298.81;30001;983;1881;-66
2022/06/19 01:58:19;;;;;;;;;;;;;;;22.73;43.55;96296.84;30001;983;1881;-69
2022/06/19 01:58:52;;;;;;;;;;;;;;;22.73;42.96;96292.09;30001;983;1881;-67
2022/06/19 01:59:27;;;;;;;;;;;;;;;22.76;43.29;96295.28;30001;983;1881;-70
2022/06/19 01:59:58;;;;;;;;;;;;;;;22.72;43.53;96298.81;30001;983;1881;-64
2022/06/19 02:00:31;;;;;;;;;;;;;;;22.72;43.92;96298.81;30001;983;1882;-65
2022/06/19 02:01:04;;;;;;;;;;;;;;;22.68;43.72;96297.97;30001;983;1882;-65
2022/06/19 02:01:36;;;;;;;;;;;;;;;22.67;43.16;96301.94;30001;983;1763;-67
2022/06/19 02:02:08;;;;;;;;;;;;;;;22.70;43.15;96303.94;30001;982;1873;-66
2022/06/19 02:02:42;;;;;;;;;;;;;;;22.73;43.51;96299.59;30001;982;1882;-66
2022/06/19 02:03:20;;;;;;;;;;;;;;;22.72;42.83;96298.81;30001;982;1882;-66
2022/06/19 02:03:56;;;;;;;;;;;;;;;22.72;43.61;96298.00;30001;982;1882;-64
2022/06/19 02:04:27;;;;;;;;;;;;;;;22.72;43.07;96301.56;30001;983;1881;-66
2022/06/19 02:04:58;;;;;;;;;;;;;;;22.72;43.07;96298.81;30001;983;1881;-65
2022/06/19 02:05:30;;;;;;;;;;;;;;;22.70;43.03;96295.63;30001;983;1881;-65
2022/06/19 02:06:01;;;;;;;;;;;;;;;22.70;43.40;96298.41;30001;983;1881;-66
2022/06/19 02:06:37;;;;;;;;;;;;;;;22.70;43.11;96311.44;30001;983;1881;-65
2022/06/19 02:07:11;;;;;;;;;;;;;;;22.69;43.10;96305.09;30001;983;1868;-66
2022/06/19 02:07:42;;;;;;;;;;;;;;;22.74;42.60;96306.72;30001;983;1873;-67
2022/06/19 02:08:15;;;;;;;;;;;;;;;22.74;42.93;96313.03;30001;974;1899;-64
2022/06/19 02:08:46;;;;;;;;;;;;;;;22.73;42.94;96300.38;30001;983;1882;-65
2022/06/19 02:09:19;;;;;;;;;;;;;;;22.73;42.72;96305.91;30001;982;1882;-65
2022/06/19 02:09:54;;;;;;;;;;;;;;;22.73;42.86;96311.44;30001;982;1882;-65
2022/06/19 02:10:26;;;;;;;;;;;;;;;22.72;42.82;96315.41;30001;982;1882;-66
2022/06/19 02:10:57;;;;;;;;;;;;;;;22.73;42.74;96303.16;30001;982;1882;-66
2022/06/19 02:11:29;;;;;;;;;;;;;;;22.74;43.11;96304.75;30001;982;1882;-65
2022/06/19 02:12:00;;;;;;;;;;;;;;;22.76;42.98;96309.09;30001;983;1868;-66
2022/06/19 02:12:32;;;;;;;;;;;;;;;22.77;42.60;96300.41;30001;983;1873;-65
2022/06/19 02:13:03;;;;;;;;;;;;;;;22.74;42.81;96304.75;30001;983;1881;-66
2022/06/19 02:13:35;;;;;;;;;;;;;;;22.72;42.97;96314.59;30001;983;1882;-64
2022/06/19 02:14:07;;;;;;;;;;;;;;;22.68;42.70;96311.81;30001;983;1881;-65
2022/06/19 02:14:38;;;;;;;;;;;;;;;22.69;43.23;96304.31;30001;983;1882;-68
2022/06/19 02:15:12;;;;;;;;;;;;;;;22.68;42.79;96302.72;30001;983;1882;-64
2022/06/19 02:15:45;;;;;;;;;;;;;;;22.65;42.93;96309.81;30001;983;1882;-64
2022/06/19 02:16:19;;;;;;;;;;;;;;;22.64;43.07;96312.97;30001;982;1882;-64
2022/06/19 02:16:51;;;;;;;;;;;;;;;22.61;43.13;96311.75;30001;982;1882;-63
2022/06/19 02:17:28;;;;;;;;;;;;;;;22.61;43.15;96303.47;30001;982;1868;-64
2022/06/19 02:18:00;;;;;;;;;;;;;;;22.59;43.47;96308.59;30001;982;1873;-62
2022/06/19 02:18:33;;;;;;;;;;;;;;;22.58;42.93;96307.00;30001;982;1882;-64
2022/06/19 02:19:04;;;;;;;;;;;;;;;22.57;43.82;96302.66;30001;982;1882;-66
2022/06/19 02:19:36;;;;;;;;;;;;;;;22.54;44.21;96311.69;30001;983;1881;-65
2022/06/19 02:20:07;;;;;;;;;;;;;;;22.51;44.30;96318.03;30001;983;1881;-65
2022/06/19 02:20:38;;;;;;;;;;;;;;;22.50;43.98;96319.22;30001;983;1882;-65
2022/06/19 02:21:13;;;;;;;;;;;;;;;22.53;43.52;96301.81;30001;983;1881;-61
2022/06/19 02:21:46;;;;;;;;;;;;;;;22.55;43.38;96304.19;30001;983;1868;-64
2022/06/19 02:22:17;;;;;;;;;;;;;;;22.55;43.88;96312.50;30001;983;1873;-62
2022/06/19 02:22:52;;;;;;;;;;;;;;;22.54;43.74;96314.47;30001;983;1882;-66
2022/06/19 02:23:30;;;;;;;;;;;;;;;22.53;43.79;96312.87;30001;983;1881;-63
2022/06/19 02:24:01;;;;;;;;;;;;;;;22.51;43.52;96315.25;30001;982;1882;-65
2022/06/19 02:24:32;;;;;;;;;;;;;;;22.50;43.86;96313.69;30001;982;1882;-66
2022/06/19 02:25:04;;;;;;;;;;;;;;;22.50;43.69;96312.87;30001;982;1882;-65
2022/06/19 02:25:38;;;;;;;;;;;;;;;22.50;43.36;96313.69;30001;982;1869;-65
2022/06/19 02:26:09;;;;;;;;;;;;;;;22.48;43.76;96313.28;30001;982;1873;-65
2022/06/19 02:26:41;;;;;;;;;;;;;;;22.47;44.04;96308.91;30001;982;1882;-66
2022/06/19 02:27:12;;;;;;;;;;;;;;;22.45;44.06;96310.47;30001;983;1881;-65
2022/06/19 02:27:44;;;;;;;;;;;;;;;22.44;44.12;96308.88;30001;983;1881;-64
2022/06/19 02:28:16;;;;;;;;;;;;;;;22.41;43.98;96304.91;30001;983;1881;-66
2022/06/19 02:28:48;;;;;;;;;;;;;;;22.40;43.67;96304.13;30001;983;1881;-64
2022/06/19 02:29:20;;;;;;;;;;;;;;;22.38;43.93;96300.94;30001;983;1882;-65
2022/06/19 02:29:51;;;;;;;;;;;;;;;22.38;44.16;96308.44;30001;983;1868;-64
2022/06/19 02:30:22;;;;;;;;;;;;;;;22.36;44.16;96308.81;30001;983;1873;-64
2022/06/19 02:30:53;;;;;;;;;;;;;;;22.35;44.09;96306.44;30001;983;1869;-64
2022/06/19 02:31:24;;;;;;;;;;;;;;;22.35;44.11;96310.00;30001;982;1873;-65
2022/06/19 02:31:56;;;;;;;;;;;;;;;22.35;44.34;96309.22;30001;982;1882;-65
2022/06/19 02:32:32;;;;;;;;;;;;;;;22.34;44.27;96304.84;30001;982;1882;-65
2022/06/19 02:33:04;;;;;;;;;;;;;;;22.33;44.23;96309.59;30001;982;1882;-64
2022/06/19 02:33:45;;;;;;;;;;;;;;;22.31;44.33;96300.09;30001;982;1882;-63
2022/06/19 02:34:20;;;;;;;;;;;;;;;22.31;44.47;96305.63;30001;982;1882;-66
2022/06/19 02:34:52;;;;;;;;;;;;;;;22.28;44.45;96303.63;30001;983;1881;-65
2022/06/19 02:35:26;;;;;;;;;;;;;;;22.28;44.52;96306.38;30001;983;1881;-65
2022/06/19 02:35:58;;;;;;;;;;;;;;;22.26;44.74;96312.28;30001;983;1868;-64
2022/06/19 02:36:55;;;;;;;;;;;;;;;22.26;45.04;96309.53;30001;983;1873;-63
2022/06/19 02:37:30;;;;;;;;;;;;;;;22.25;44.54;96307.94;30001;983;1877;-65
2022/06/19 02:38:05;;;;;;;;;;;;;;;22.28;43.53;96303.63;30001;983;1882;-65
2022/06/19 02:38:36;;;;;;;;;;;;;;;22.28;43.55;96304.41;30001;982;1882;-65
2022/06/19 02:39:35;;;;;;;;;;;;;;;22.29;43.78;96302.44;30001;982;1880;-65
2022/06/19 02:40:44;;;;;;;;;;;;;;;22.38;42.70;96294.63;30001;982;1877;-64
2022/06/19 02:41:20;;;;;;;;;;;;;;;22.41;43.11;96302.16;30001;982;1865;-66
2022/06/19 02:42:23;;;;;;;;;;;;;;;22.48;42.30;96288.38;30001;982;1873;-63
2022/06/19 02:42:54;;;;;;;;;;;;;;;22.50;42.85;96297.09;30001;983;1864;-66
2022/06/19 02:43:26;;;;;;;;;;;;;;;22.56;42.81;96301.06;30001;983;1859;-55
2022/06/19 02:43:59;;;;;;;;;;;;;;;22.57;42.90;96296.31;30001;983;1881;-65
2022/06/19 02:44:32;;;;;;;;;;;;;;;22.57;42.53;96297.13;30001;983;1881;-64
2022/06/19 02:45:06;;;;;;;;;;;;;;;22.59;42.19;96305.03;30001;983;1881;-65
2022/06/19 02:45:39;;;;;;;;;;;;;;;22.65;42.29;96297.97;30001;983;1882;-67
2022/06/19 02:46:11;;;;;;;;;;;;;;;22.74;41.98;96293.69;30001;982;1882;-66
2022/06/19 02:46:42;;;;;;;;;;;;;;;22.75;42.33;96291.72;30001;982;1882;-66
2022/06/19 02:47:13;;;;;;;;;;;;;;;22.77;42.16;96289.34;30001;982;1882;-66
2022/06/19 02:47:44;;;;;;;;;;;;;;;22.81;41.68;96294.94;30001;982;1802;-66
2022/06/19 02:48:20;;;;;;;;;;;;;;;22.84;42.04;96294.16;30001;982;1882;-66
2022/06/19 02:48:51;;;;;;;;;;;;;;;22.83;42.09;96298.13;30001;983;1868;-64
2022/06/19 02:49:22;;;;;;;;;;;;;;;22.84;42.25;96302.47;30001;983;1873;-65
2022/06/19 02:49:53;;;;;;;;;;;;;;;22.86;42.18;96297.34;30001;983;1881;-66
2022/06/19 02:50:26;;;;;;;;;;;;;;;22.86;42.02;96291.81;30001;983;1881;-65
2022/06/19 02:51:00;;;;;;;;;;;;;;;22.87;42.43;96293.41;30001;983;1868;-67
2022/06/19 02:51:31;;;;;;;;;;;;;;;22.85;42.25;96295.75;30001;983;1873;-64
2022/06/19 02:52:03;;;;;;;;;;;;;;;22.83;42.06;96298.13;30001;983;1882;-66
2022/06/19 02:52:34;;;;;;;;;;;;;;;22.83;42.25;96298.13;30001;983;1881;-66
2022/06/19 02:53:05;;;;;;;;;;;;;;;22.79;41.99;96295.31;30001;983;1881;-65
2022/06/19 02:53:37;;;;;;;;;;;;;;;22.73;42.53;96300.38;30001;982;1882;-64
2022/06/19 02:54:08;;;;;;;;;;;;;;;22.69;42.71;96299.56;30001;982;1882;-65
2022/06/19 02:54:40;;;;;;;;;;;;;;;22.66;42.74;96305.88;30001;982;1882;-65
2022/06/19 02:55:11;;;;;;;;;;;;;;;22.65;42.52;96298.75;30001;982;1882;-65
2022/06/19 02:55:43;;;;;;;;;;;;;;;22.65;42.41;96298.75;30001;982;1869;-66
2022/06/19 02:56:13;;;;;;;;;;;;;;;22.68;42.60;96295.22;30001;983;1872;-66
2022/06/19 02:56:44;;;;;;;;;;;;;;;22.73;42.51;96294.84;30001;983;1881;-68
2022/06/19 02:57:16;;;;;;;;;;;;;;;22.77;42.25;96294.09;30001;983;1882;-66
2022/06/19 02:57:47;;;;;;;;;;;;;;;22.74;42.73;96296.44;30001;983;1868;-66
2022/06/19 02:58:19;;;;;;;;;;;;;;;22.73;42.44;96294.84;30001;983;1873;-63
2022/06/19 02:58:50;;;;;;;;;;;;;;;22.71;42.52;96294.44;30001;983;1868;-65
2022/06/19 02:59:21;;;;;;;;;;;;;;;22.71;42.53;96291.69;30001;983;1873;-67